createdAt,value
2022-08-23T00:00:12.975Z,64.67
2022-08-23T00:02:43.627Z,64.17
2022-08-23T00:05:13.448Z,63.89
2022-08-23T00:07:45.530Z,63.98
2022-08-23T00:10:17.392Z,65.97
2022-08-23T00:12:47.562Z,66.73
2022-08-23T00:15:20.772Z,63.77
2022-08-23T00:17:49.318Z,64.30
2022-08-23T00:20:20.745Z,64.20
2022-08-23T00:22:49.201Z,64.23
2022-08-23T00:25:18.903Z,64.00
2022-08-23T00:27:47.314Z,63.04
2022-08-23T00:30:19.081Z,60.01
2022-08-23T00:32:47.429Z,61.71
2022-08-23T00:35:23.732Z,56.83
2022-08-23T00:38:32.222Z,61.67
2022-08-23T00:40:47.509Z,62.35
2022-08-23T00:43:38.993Z,60.84
2022-08-23T00:46:37.175Z,57.57
2022-08-23T00:49:10.649Z,55.47
2022-08-23T00:51:52.824Z,61.98
2022-08-23T00:54:24.657Z,63.94
2022-08-23T00:56:55.056Z,64.18
2022-08-23T00:59:24.635Z,64.86
2022-08-23T01:01:54.847Z,58.99
2022-08-23T01:04:23.794Z,59.98
2022-08-23T01:06:59.353Z,57.71
2022-08-23T01:09:27.915Z,58.22
2022-08-23T01:12:04.543Z,56.51
2022-08-23T01:14:37.872Z,56.17
2022-08-23T01:17:14.147Z,56.25
2022-08-23T01:19:48.779Z,56.63
2022-08-23T01:22:22.170Z,56.55
2022-08-23T01:25:07.372Z,56.28
2022-08-23T01:27:43.172Z,56.38
2022-08-23T01:30:19.645Z,55.77
2022-08-23T01:32:53.258Z,55.80
2022-08-23T01:38:00.261Z,56.07
2022-08-23T01:40:32.547Z,56.38
2022-08-23T01:43:02.464Z,55.62
2022-08-23T01:45:32.462Z,55.04
2022-08-23T01:48:02.727Z,55.00
2022-08-23T01:50:32.211Z,54.71
2022-08-23T01:53:01.506Z,54.33
2022-08-23T01:55:32.626Z,55.05
2022-08-23T01:58:02.642Z,55.50
2022-08-23T02:00:35.641Z,55.70
2022-08-23T02:03:05.861Z,56.43
2022-08-23T02:05:37.222Z,57.12
2022-08-23T02:08:21.326Z,57.61
2022-08-23T02:10:53.285Z,57.85
2022-08-23T02:13:22.172Z,57.98
2022-08-23T02:15:51.972Z,58.15
2022-08-23T02:18:22.414Z,57.97
2022-08-23T02:20:54.652Z,57.67
2022-08-23T02:23:24.020Z,56.99
2022-08-23T02:25:54.434Z,56.66
2022-08-23T02:28:25.403Z,56.24
2022-08-23T02:30:53.856Z,55.82
2022-08-23T02:33:22.268Z,55.58
2022-08-23T02:35:50.835Z,55.45
2022-08-23T02:38:19.549Z,54.92
2022-08-23T02:40:52.912Z,54.84
2022-08-23T02:43:36.442Z,54.64
2022-08-23T02:46:07.776Z,55.25
2022-08-23T02:48:37.630Z,57.13
2022-08-23T02:51:09.705Z,57.35
2022-08-23T02:53:38.603Z,57.78
2022-08-23T02:56:13.082Z,57.40
2022-08-23T02:58:54.037Z,55.78
2022-08-23T03:01:28.566Z,60.59
2022-08-23T03:04:01.828Z,63.03
2022-08-23T03:06:32.175Z,63.69
2022-08-23T03:09:00.915Z,62.58
2022-08-23T03:11:29.503Z,63.73
2022-08-23T03:14:00.674Z,64.38
2022-08-23T03:16:30.459Z,66.37
2022-08-23T03:18:58.906Z,67.41
2022-08-23T03:21:27.210Z,68.10
2022-08-23T03:23:56.862Z,67.76
2022-08-23T03:26:25.760Z,68.19
2022-08-23T03:28:54.955Z,67.46
2022-08-23T03:31:29.597Z,67.53
2022-08-23T03:34:08.007Z,65.66
2022-08-23T03:36:36.994Z,68.69
2022-08-23T03:39:07.471Z,68.60
2022-08-23T03:41:35.880Z,65.75
2022-08-23T03:44:05.122Z,66.63
2022-08-23T03:46:38.357Z,66.84
2022-08-23T03:49:07.108Z,68.01
2022-08-23T03:51:55.972Z,68.64
2022-08-23T03:54:24.997Z,68.66
2022-08-23T03:57:00.443Z,69.17
2022-08-23T03:59:34.078Z,67.70
2022-08-23T04:02:06.354Z,67.28
2022-08-23T04:04:34.959Z,66.69
2022-08-23T04:07:26.755Z,67.28
2022-08-23T04:09:57.531Z,66.80
2022-08-23T04:12:28.820Z,66.92
2022-08-23T04:14:57.470Z,65.96
2022-08-23T04:17:32.099Z,66.80
2022-08-23T04:20:01.245Z,68.53
2022-08-23T04:22:30.875Z,67.90
2022-08-23T04:24:59.341Z,65.81
2022-08-23T04:27:28.004Z,67.73
2022-08-23T04:29:56.466Z,69.12
2022-08-23T04:32:28.365Z,69.98
2022-08-23T04:34:58.635Z,70.02
2022-08-23T04:37:28.122Z,70.61
2022-08-23T04:40:14.481Z,71.14
2022-08-23T04:42:44.284Z,70.33
2022-08-23T04:45:14.211Z,71.26
2022-08-23T04:47:47.722Z,71.14
2022-08-23T04:50:17.500Z,69.00
2022-08-23T04:53:12.927Z,70.67
2022-08-23T04:55:52.447Z,70.19
2022-08-23T04:58:21.551Z,68.08
2022-08-23T05:00:51.812Z,67.22
2022-08-23T05:03:28.098Z,68.81
2022-08-23T05:05:58.278Z,69.67
2022-08-23T05:08:33.530Z,69.97
2022-08-23T05:11:03.086Z,69.85
2022-08-23T05:13:31.751Z,67.55
2022-08-23T05:16:05.236Z,67.72
2022-08-23T05:18:38.392Z,69.32
2022-08-23T05:21:07.975Z,68.89
2022-08-23T05:23:36.761Z,68.07
2022-08-23T05:26:10.032Z,69.31
2022-08-23T05:28:45.130Z,68.81
2022-08-23T05:31:21.118Z,71.20
2022-08-23T05:33:56.909Z,69.70
2022-08-23T05:36:38.977Z,68.64
2022-08-23T05:39:25.739Z,68.58
2022-08-23T05:42:07.862Z,70.87
2022-08-23T05:44:37.222Z,69.35
2022-08-23T05:47:10.402Z,68.33
2022-08-23T05:49:46.152Z,70.59
2022-08-23T05:52:15.563Z,70.81
2022-08-23T05:54:45.355Z,69.56
2022-08-23T05:57:43.103Z,67.52
2022-08-23T06:00:14.911Z,65.09
2022-08-23T06:02:51.584Z,63.40
2022-08-23T06:05:23.215Z,63.70
2022-08-23T06:07:52.382Z,63.30
2022-08-23T06:10:23.729Z,63.28
2022-08-23T06:12:58.815Z,64.36
2022-08-23T06:15:27.071Z,64.11
2022-08-23T06:17:55.443Z,64.43
2022-08-23T06:20:25.273Z,62.99
2022-08-23T06:23:02.162Z,63.12
2022-08-23T06:25:32.249Z,63.57
2022-08-23T06:28:09.516Z,62.93
2022-08-23T06:30:40.167Z,62.32
2022-08-23T06:33:19.240Z,62.43
2022-08-23T06:35:51.022Z,62.18
2022-08-23T06:38:27.122Z,62.08
2022-08-23T06:41:13.972Z,62.06
2022-08-23T06:44:01.850Z,62.05
2022-08-23T06:46:49.365Z,62.27
2022-08-23T06:49:18.330Z,62.00
2022-08-23T06:51:52.357Z,61.77
2022-08-23T06:54:34.707Z,61.79
2022-08-23T06:57:24.236Z,62.45
2022-08-23T07:00:22.272Z,63.08
2022-08-23T07:03:09.894Z,61.26
2022-08-23T07:05:56.520Z,60.90
2022-08-23T07:08:31.944Z,61.44
2022-08-23T07:11:00.308Z,59.84
2022-08-23T07:13:28.736Z,58.83
2022-08-23T07:16:00.234Z,58.68
2022-08-23T07:18:29.226Z,58.61
2022-08-23T07:20:58.883Z,58.58
2022-08-23T07:23:28.301Z,58.44
2022-08-23T07:25:59.227Z,59.10
2022-08-23T07:28:30.971Z,58.89
2022-08-23T07:31:13.098Z,59.24
2022-08-23T07:33:44.696Z,58.81
2022-08-23T07:36:19.922Z,58.64
2022-08-23T07:38:51.460Z,58.66
2022-08-23T07:41:22.185Z,59.52
2022-08-23T07:43:50.992Z,59.35
2022-08-23T07:46:20.984Z,58.49
2022-08-23T07:48:54.290Z,58.77
2022-08-23T07:51:33.262Z,58.42
2022-08-23T07:54:03.594Z,58.03
2022-08-23T07:56:33.605Z,57.95
2022-08-23T07:59:15.305Z,58.44
2022-08-23T08:02:03.382Z,58.09
2022-08-23T08:04:31.993Z,56.55
2022-08-23T08:07:18.202Z,56.27
2022-08-23T08:09:50.795Z,56.12
2022-08-23T08:12:20.914Z,55.87
2022-08-23T08:14:53.463Z,56.16
2022-08-23T08:17:27.639Z,56.61
2022-08-23T08:20:28.272Z,55.43
2022-08-23T08:23:15.383Z,55.57
2022-08-23T08:26:12.422Z,56.03
2022-08-23T08:28:53.236Z,55.93
2022-08-23T08:31:21.605Z,55.72
2022-08-23T08:33:50.077Z,56.86
2022-08-23T08:36:41.800Z,55.77
2022-08-23T08:39:18.712Z,56.14
2022-08-23T08:42:04.661Z,55.89
2022-08-23T08:44:46.036Z,56.47
2022-08-23T08:47:22.781Z,55.97
2022-08-23T08:49:59.150Z,55.96
2022-08-23T08:52:32.250Z,55.94
2022-08-23T08:55:14.182Z,55.55
2022-08-23T08:57:47.920Z,55.33
2022-08-23T09:00:23.366Z,55.78
2022-08-23T09:02:53.087Z,55.99
2022-08-23T09:05:27.674Z,55.38
2022-08-23T09:08:13.379Z,56.04
2022-08-23T09:10:52.931Z,55.88
2022-08-23T09:13:53.542Z,56.08
2022-08-23T09:16:37.366Z,55.61
2022-08-23T09:19:07.360Z,56.11
2022-08-23T09:21:45.770Z,55.26
2022-08-23T09:24:14.971Z,55.21
2022-08-23T09:27:02.264Z,54.97
2022-08-23T09:29:33.091Z,55.01
2022-08-23T09:32:06.661Z,54.10
2022-08-23T09:34:43.672Z,53.96
2022-08-23T09:37:25.179Z,52.72
2022-08-23T09:40:16.428Z,52.79
2022-08-23T09:42:47.415Z,53.28
2022-08-23T09:45:33.122Z,52.53
2022-08-23T09:48:06.183Z,52.23
2022-08-23T09:50:43.338Z,52.03
2022-08-23T09:53:15.707Z,51.92
2022-08-23T09:55:51.333Z,52.48
2022-08-23T09:58:36.842Z,51.63
2022-08-23T10:01:13.909Z,51.68
2022-08-23T10:03:47.597Z,51.82
2022-08-23T10:06:34.130Z,51.02
2022-08-23T10:09:08.247Z,51.75
2022-08-23T10:11:44.923Z,51.48
2022-08-23T10:14:15.627Z,51.44
2022-08-23T10:17:00.479Z,50.84
2022-08-23T10:19:43.787Z,49.77
2022-08-23T10:22:20.820Z,48.64
2022-08-23T10:25:14.292Z,50.16
2022-08-23T10:28:07.381Z,50.63
2022-08-23T10:30:47.112Z,50.05
2022-08-23T10:33:23.538Z,49.92
2022-08-23T10:36:15.902Z,48.94
2022-08-23T10:38:51.862Z,48.35
2022-08-23T10:41:41.693Z,48.28
2022-08-23T10:44:26.892Z,49.21
2022-08-23T10:47:12.277Z,48.53
2022-08-23T10:49:43.398Z,47.93
2022-08-23T10:52:22.004Z,48.17
2022-08-23T10:55:01.069Z,47.65
2022-08-23T10:57:36.764Z,46.82
2022-08-23T11:00:10.747Z,46.69
2022-08-23T11:02:49.659Z,46.08
2022-08-23T11:05:36.331Z,47.24
2022-08-23T11:08:36.719Z,47.89
2022-08-23T11:11:43.200Z,47.65
2022-08-23T11:14:27.281Z,47.32
2022-08-23T11:17:00.574Z,47.89
2022-08-23T11:19:52.477Z,47.11
2022-08-23T11:22:25.830Z,46.19
2022-08-23T11:25:03.154Z,45.59
2022-08-23T11:27:42.682Z,46.15
2022-08-23T11:30:50.775Z,45.89
2022-08-23T11:33:28.544Z,46.50
2022-08-23T11:36:21.849Z,45.45
2022-08-23T11:39:19.523Z,44.87
2022-08-23T11:42:09.882Z,44.93
2022-08-23T11:44:43.210Z,45.95
2022-08-23T11:47:15.438Z,45.84
2022-08-23T11:50:21.218Z,45.78
2022-08-23T11:53:11.874Z,45.81
2022-08-23T11:56:15.335Z,45.49
2022-08-23T11:59:22.981Z,45.79
2022-08-23T12:01:52.825Z,45.83
2022-08-23T12:04:37.549Z,46.05
2022-08-23T12:07:12.809Z,46.49
2022-08-23T12:09:57.908Z,46.36
2022-08-23T12:12:39.253Z,46.84
2022-08-23T12:15:13.192Z,47.11
2022-08-23T12:18:17.425Z,47.10
2022-08-23T12:20:50.184Z,48.88
2022-08-23T12:23:21.901Z,48.84
2022-08-23T12:26:07.275Z,49.13
2022-08-23T12:28:45.397Z,49.42
2022-08-23T12:31:26.878Z,51.65
2022-08-23T12:34:19.698Z,53.74
2022-08-23T12:36:59.577Z,55.85
2022-08-23T12:39:33.297Z,56.24
2022-08-23T12:42:08.267Z,57.16
2022-08-23T12:44:36.915Z,57.61
2022-08-23T12:47:15.863Z,57.81
2022-08-23T12:49:58.112Z,57.94
2022-08-23T12:52:30.098Z,57.61
2022-08-23T12:54:59.205Z,54.75
2022-08-23T12:57:36.079Z,53.35
2022-08-23T13:00:18.897Z,53.87
2022-08-23T13:02:56.974Z,52.34
2022-08-23T13:05:39.120Z,52.27
2022-08-23T13:08:11.830Z,51.83
2022-08-23T13:10:43.486Z,52.07
2022-08-23T13:13:16.033Z,51.82
2022-08-23T13:15:53.006Z,49.94
2022-08-23T13:18:32.843Z,49.90
2022-08-23T13:21:28.758Z,50.93
2022-08-23T13:24:03.568Z,50.56
2022-08-23T13:26:40.282Z,50.66
2022-08-23T13:29:14.219Z,50.61
2022-08-23T13:32:06.933Z,49.75
2022-08-23T13:34:47.045Z,50.51
2022-08-23T13:37:24.520Z,50.69
2022-08-23T13:39:55.940Z,50.00
2022-08-23T13:42:36.616Z,49.98
2022-08-23T13:45:11.238Z,51.29
2022-08-23T13:47:39.659Z,50.06
2022-08-23T13:50:18.830Z,49.31
2022-08-23T13:53:13.027Z,49.96
2022-08-23T13:55:44.190Z,49.05
2022-08-23T13:58:15.239Z,49.79
2022-08-23T14:00:55.064Z,50.00
2022-08-23T14:03:25.076Z,50.55
2022-08-23T14:05:55.032Z,50.45
2022-08-23T14:08:23.476Z,49.77
2022-08-23T14:10:52.170Z,49.27
2022-08-23T14:13:22.950Z,49.53
2022-08-23T14:15:56.763Z,50.33
2022-08-23T14:18:27.064Z,50.05
2022-08-23T14:20:57.024Z,50.45
2022-08-23T14:23:25.381Z,50.39
2022-08-23T14:25:58.955Z,50.44
2022-08-23T14:28:31.258Z,51.95
2022-08-23T14:30:59.929Z,50.82
2022-08-23T14:33:28.333Z,50.96
2022-08-23T14:35:58.287Z,52.84
2022-08-23T14:38:26.748Z,55.10
2022-08-23T14:40:59.068Z,55.52
2022-08-23T14:43:28.151Z,56.54
2022-08-23T14:45:57.047Z,57.34
2022-08-23T14:48:26.384Z,57.99
2022-08-23T14:50:57.533Z,57.91
2022-08-23T14:53:30.891Z,57.41
2022-08-23T14:56:20.277Z,57.61
2022-08-23T14:58:47.516Z,58.44
2022-08-23T15:01:16.335Z,58.86
2022-08-23T15:03:44.913Z,60.30
2022-08-23T15:06:16.683Z,59.96
2022-08-23T15:08:45.930Z,58.74
2022-08-23T15:14:04.114Z,59.80
2022-08-23T15:16:33.452Z,59.35
2022-08-23T15:19:02.047Z,59.57
2022-08-23T15:21:31.796Z,60.05
2022-08-23T15:24:00.259Z,59.80
2022-08-23T15:26:31.307Z,59.73
2022-08-23T15:29:00.563Z,59.50
2022-08-23T15:31:29.727Z,58.96
2022-08-23T15:33:58.227Z,58.92
2022-08-23T15:36:28.009Z,58.95
2022-08-23T15:38:57.840Z,59.04
2022-08-23T15:41:26.180Z,59.69
2022-08-23T15:43:54.447Z,58.74
2022-08-23T15:46:24.863Z,59.19
2022-08-23T15:48:56.288Z,59.36
2022-08-23T15:51:25.347Z,59.84
2022-08-23T15:53:53.744Z,59.87
2022-08-23T15:56:28.631Z,59.97
2022-08-23T15:58:57.465Z,60.07
2022-08-23T16:01:28.801Z,59.76
2022-08-23T16:03:57.340Z,59.38
2022-08-23T16:06:25.670Z,59.93
2022-08-23T16:08:54.861Z,59.80
2022-08-23T16:11:24.846Z,59.61
2022-08-23T16:13:55.274Z,60.15
2022-08-23T16:16:28.887Z,60.52
2022-08-23T16:18:58.433Z,59.98
2022-08-23T16:21:29.489Z,58.99
2022-08-23T16:23:59.258Z,58.62
2022-08-23T16:26:34.862Z,58.47
2022-08-23T16:29:07.905Z,57.52
2022-08-23T16:31:39.811Z,57.12
2022-08-23T16:34:11.778Z,57.47
2022-08-23T16:36:42.332Z,56.84
2022-08-23T16:39:12.936Z,56.72
2022-08-23T16:41:42.600Z,58.61
2022-08-23T16:44:11.072Z,59.09
2022-08-23T16:46:42.733Z,59.99
2022-08-23T16:49:11.259Z,59.99
2022-08-23T16:51:39.567Z,60.44
2022-08-23T16:54:08.636Z,61.43
2022-08-23T16:56:39.595Z,61.27
2022-08-23T16:59:12.003Z,61.70
2022-08-23T17:01:52.542Z,62.36
2022-08-23T17:04:21.911Z,62.70
2022-08-23T17:06:50.354Z,61.90
2022-08-23T17:09:18.709Z,61.99
2022-08-23T17:11:47.665Z,62.69
2022-08-23T17:14:17.599Z,63.51
2022-08-23T17:16:47.019Z,63.37
2022-08-23T17:19:15.913Z,63.21
2022-08-23T17:21:45.093Z,63.29
2022-08-23T17:24:13.590Z,63.28
2022-08-23T17:26:41.913Z,63.15
2022-08-23T17:29:10.388Z,63.03
2022-08-23T17:31:40.445Z,62.42
2022-08-23T17:34:08.867Z,60.65
2022-08-23T17:36:42.029Z,60.45
2022-08-23T17:39:18.444Z,59.96
2022-08-23T17:41:47.090Z,59.42
2022-08-23T17:44:15.771Z,59.21
2022-08-23T17:46:49.149Z,58.86
2022-08-23T17:49:19.609Z,59.11
2022-08-23T17:51:49.353Z,59.79
2022-08-23T17:54:18.460Z,61.00
2022-08-23T17:56:50.432Z,61.83
2022-08-23T17:59:20.140Z,62.48
2022-08-23T18:01:49.880Z,62.60
2022-08-23T18:04:18.302Z,62.49
2022-08-23T18:06:47.305Z,62.67
2022-08-23T18:09:16.435Z,63.34
2022-08-23T18:11:44.932Z,64.06
2022-08-23T18:14:13.258Z,64.33
2022-08-23T18:16:44.040Z,64.16
2022-08-23T18:19:15.529Z,64.56
2022-08-23T18:21:45.453Z,63.65
2022-08-23T18:24:14.375Z,62.82
2022-08-23T18:27:01.314Z,62.46
2022-08-23T18:29:30.294Z,61.91
2022-08-23T18:31:58.751Z,61.82
2022-08-23T18:34:29.455Z,61.78
2022-08-23T18:36:59.296Z,61.69
2022-08-23T18:39:31.841Z,61.29
2022-08-23T18:42:01.336Z,61.40
2022-08-23T18:44:29.889Z,61.12
2022-08-23T18:46:58.617Z,60.92
2022-08-23T18:49:28.471Z,60.67
2022-08-23T18:51:57.210Z,60.34
2022-08-23T18:54:25.610Z,60.40
2022-08-23T18:56:53.988Z,60.20
2022-08-23T18:59:22.289Z,60.82
2022-08-23T19:01:51.240Z,60.67
2022-08-23T19:04:20.252Z,60.09
2022-08-23T19:06:50.072Z,60.22
2022-08-23T19:09:23.023Z,60.75
2022-08-23T19:11:51.336Z,60.61
2022-08-23T19:14:19.757Z,60.76
2022-08-23T19:16:48.872Z,61.14
2022-08-23T19:19:18.720Z,61.21
2022-08-23T19:21:47.110Z,61.14
2022-08-23T19:24:17.461Z,62.98
2022-08-23T19:26:47.577Z,63.86
2022-08-23T19:29:18.444Z,64.13
2022-08-23T19:31:48.178Z,64.80
2022-08-23T19:34:17.708Z,64.49
2022-08-23T19:36:58.954Z,64.77
2022-08-23T19:39:30.938Z,64.56
2022-08-23T19:41:59.898Z,65.74
2022-08-23T19:44:28.625Z,65.16
2022-08-23T19:46:57.367Z,65.38
2022-08-23T19:49:25.983Z,65.37
2022-08-23T19:51:54.358Z,65.30
2022-08-23T19:54:22.948Z,65.11
2022-08-23T19:56:59.768Z,65.54
2022-08-23T19:59:31.323Z,65.18
2022-08-23T20:02:00.626Z,65.24
2022-08-23T20:04:32.183Z,65.55
2022-08-23T20:07:02.620Z,65.69
2022-08-23T20:09:33.198Z,65.53
2022-08-23T20:12:03.265Z,65.73
2022-08-23T20:14:33.590Z,65.97
2022-08-23T20:17:04.386Z,66.02
2022-08-23T20:19:32.779Z,66.47
2022-08-23T20:22:16.275Z,69.02
2022-08-23T20:24:51.273Z,69.17
2022-08-23T20:27:25.447Z,69.60
2022-08-23T20:30:00.243Z,69.95
2022-08-23T20:32:29.274Z,69.41
2022-08-23T20:34:58.279Z,68.73
2022-08-23T20:37:26.819Z,68.53
2022-08-23T20:39:55.569Z,67.91
2022-08-23T20:42:25.405Z,67.51
2022-08-23T20:44:53.942Z,67.54
2022-08-23T20:47:22.499Z,69.44
2022-08-23T20:49:51.063Z,70.28
2022-08-23T20:52:19.349Z,71.09
2022-08-23T20:54:47.703Z,71.39
2022-08-23T20:57:16.073Z,71.56
2022-08-23T20:59:45.734Z,72.05
2022-08-23T21:02:14.585Z,71.64
2022-08-23T21:04:42.963Z,72.53
2022-08-23T21:07:11.271Z,71.59
2022-08-23T21:09:39.614Z,71.34
2022-08-23T21:12:08.665Z,70.72
2022-08-23T21:14:37.064Z,71.31
2022-08-23T21:17:07.616Z,72.05
2022-08-23T21:19:35.753Z,72.58
2022-08-23T21:22:04.035Z,73.29
2022-08-23T21:24:32.354Z,73.40
2022-08-23T21:27:00.620Z,73.24
2022-08-23T21:29:29.139Z,72.41
2022-08-23T21:31:57.742Z,72.30
2022-08-23T21:34:27.577Z,71.99
2022-08-23T21:36:56.022Z,72.47
2022-08-23T21:39:24.461Z,73.04
2022-08-23T21:41:55.699Z,73.22
2022-08-23T21:44:25.233Z,72.62
2022-08-23T21:46:53.639Z,71.60
2022-08-23T21:49:23.162Z,72.24
2022-08-23T21:51:54.368Z,72.16
2022-08-23T21:54:24.486Z,72.02
2022-08-23T21:56:52.814Z,71.84
2022-08-23T21:59:21.248Z,72.38
2022-08-23T22:01:50.743Z,72.89
2022-08-23T22:04:19.145Z,72.87
2022-08-23T22:06:48.746Z,72.65
2022-08-23T22:09:25.697Z,72.26
2022-08-23T22:12:00.801Z,72.18
2022-08-23T22:14:31.542Z,72.54
2022-08-23T22:17:00.750Z,71.94
2022-08-23T22:19:29.431Z,71.61
2022-08-23T22:21:58.661Z,71.13
2022-08-23T22:24:28.327Z,71.25
2022-08-23T22:26:57.113Z,71.78
2022-08-23T22:29:25.869Z,72.01
2022-08-23T22:31:54.175Z,71.99
2022-08-23T22:34:22.619Z,72.22
2022-08-23T22:36:52.065Z,72.90
2022-08-23T22:39:21.535Z,73.93
2022-08-23T22:41:51.662Z,74.12
2022-08-23T22:44:20.180Z,74.92
2022-08-23T22:46:48.965Z,75.76
2022-08-23T22:49:17.516Z,76.56
2022-08-23T22:51:45.825Z,77.56
2022-08-23T22:54:17.434Z,78.30
2022-08-23T22:56:51.598Z,78.21
2022-08-23T22:59:27.471Z,78.72
2022-08-23T23:01:58.540Z,78.40
2022-08-23T23:04:28.293Z,78.57
2022-08-23T23:06:57.788Z,78.61
2022-08-23T23:09:26.725Z,78.58
2022-08-23T23:11:56.850Z,78.47
2022-08-23T23:14:25.199Z,78.84
2022-08-23T23:16:54.131Z,78.43
2022-08-23T23:19:39.956Z,78.61
2022-08-23T23:22:09.894Z,78.73
2022-08-23T23:24:40.864Z,78.27
2022-08-23T23:27:10.704Z,78.16
2022-08-23T23:29:39.121Z,78.33
2022-08-23T23:32:07.845Z,77.56
2022-08-23T23:34:37.954Z,76.84
2022-08-23T23:37:07.000Z,76.86
2022-08-23T23:39:35.406Z,76.82
2022-08-23T23:42:03.786Z,76.63
2022-08-23T23:44:33.538Z,76.22
2022-08-23T23:47:02.623Z,76.31
2022-08-23T23:49:33.662Z,76.36
2022-08-23T23:52:04.691Z,76.65
2022-08-23T23:54:34.039Z,76.89
2022-08-23T23:57:03.693Z,76.98
2022-08-23T23:59:34.070Z,76.78
